Time;durP1;ratioP1;P1;durP2;ratioP2;P2;SDS_P1;SDS_P2;PMS_P1;PMS_P2;Temp;Humidity;BMP_temperature;BMP_pressure;BME280_temperature;BME280_humidity;BME280_pressure;Samples;Min_cycle;Max_cycle;Signal;HPM_P1;HPM_P2
2021/06/24 00:01:05;;;;;;;;;;;20.70;68.10;;;;;;5043858;28;20401;-67
2021/06/24 00:03:31;;;;;;;;;;;20.70;68.10;;;;;;5045599;28;20459;-67
2021/06/24 00:05:57;;;;;;;;;;;20.80;67.60;;;;;;5053080;28;20264;-67
2021/06/24 00:08:22;;;;;;;;;;;20.80;67.80;;;;;;5046047;28;19978;-67
2021/06/24 00:10:48;;;;;;;;;;;20.80;67.80;;;;;;5046229;28;19925;-67
2021/06/24 00:13:14;;;;;;;;;;;20.80;67.80;;;;;;5044540;28;20031;-67
2021/06/24 00:15:39;;;;;;;;;;;20.90;67.60;;;;;;5049225;28;19920;-66
2021/06/24 00:18:05;;;;;;;;;;;20.90;67.50;;;;;;5047163;28;20454;-67
2021/06/24 00:20:30;;;;;;;;;;;20.80;67.50;;;;;;5055287;28;19959;-67
2021/06/24 00:22:56;;;;;;;;;;;20.70;67.90;;;;;;5076357;22;20520;-64
2021/06/24 00:25:21;;;;;;;;;;;20.70;68.00;;;;;;5054827;28;19982;-64
2021/06/24 00:27:47;;;;;;;;;;;20.70;68.00;;;;;;5056708;28;20380;-64
2021/06/24 00:30:12;;;;;;;;;;;20.70;68.20;;;;;;5060046;28;20031;-64
2021/06/24 00:32:38;;;;;;;;;;;20.70;68.00;;;;;;5059716;28;19921;-64
2021/06/24 00:35:04;;;;;;;;;;;20.70;68.00;;;;;;5053065;28;19923;-64
2021/06/24 00:37:29;;;;;;;;;;;20.70;68.00;;;;;;5053345;28;19925;-65
2021/06/24 00:39:55;;;;;;;;;;;20.70;68.20;;;;;;5050942;28;20069;-64
2021/06/24 00:42:22;;;;;;;;;;;20.60;68.10;;;;;;5056538;28;20023;-64
2021/06/24 00:44:47;;;;;;;;;;;20.80;67.90;;;;;;5054768;28;19917;-64
2021/06/24 00:47:13;;;;;;;;;;;20.80;67.60;;;;;;5051346;28;20042;-65
2021/06/24 00:49:38;;;;;;;;;;;20.80;67.50;;;;;;5047709;28;19921;-64
2021/06/24 00:52:04;;;;;;;;;;;20.80;67.30;;;;;;5046225;28;19994;-64
2021/06/24 00:54:29;;;;;;;;;;;20.90;67.30;;;;;;5050780;28;20411;-64
2021/06/24 00:56:55;;;;;;;;;;;20.80;67.50;;;;;;5047691;28;19917;-65
2021/06/24 00:59:20;;;;;;;;;;;20.80;67.40;;;;;;5050568;28;19928;-64
2021/06/24 01:01:46;;;;;;;;;;;20.80;67.60;;;;;;5046091;28;20007;-64
2021/06/24 01:04:11;;;;;;;;;;;20.80;67.30;;;;;;5047778;28;20583;-64
2021/06/24 01:06:37;;;;;;;;;;;20.80;67.40;;;;;;5039458;28;19993;-64
2021/06/24 01:09:02;;;;;;;;;;;20.70;67.50;;;;;;5047068;28;19969;-64
2021/06/24 01:11:28;;;;;;;;;;;20.70;67.40;;;;;;5053610;28;19924;-64
2021/06/24 01:13:53;;;;;;;;;;;20.60;67.90;;;;;;5050579;28;20302;-64
2021/06/24 01:16:18;;;;;;;;;;;20.60;67.50;;;;;;5041973;28;19924;-64
2021/06/24 01:18:44;;;;;;;;;;;20.70;67.40;;;;;;5049250;28;19916;-64
2021/06/24 01:21:10;;;;;;;;;;;20.60;67.40;;;;;;5047922;28;20495;-64
2021/06/24 01:23:39;;;;;;;;;;;20.70;67.40;;;;;;5046866;28;19920;-64
2021/06/24 01:26:04;;;;;;;;;;;20.70;67.30;;;;;;5047026;28;19921;-65
2021/06/24 01:28:30;;;;;;;;;;;20.80;66.90;;;;;;5058680;28;19920;-64
2021/06/24 01:30:55;;;;;;;;;;;20.60;67.30;;;;;;5056531;28;19920;-64
2021/06/24 01:33:21;;;;;;;;;;;20.70;67.30;;;;;;5051803;28;19932;-64
2021/06/24 01:35:46;;;;;;;;;;;20.70;67.50;;;;;;5053276;28;20303;-64
2021/06/24 01:38:12;;;;;;;;;;;20.80;67.20;;;;;;5055936;28;19971;-63
2021/06/24 01:40:37;;;;;;;;;;;20.70;66.70;;;;;;5053884;28;19924;-64
2021/06/24 01:43:03;;;;;;;;;;;20.60;67.00;;;;;;5048160;28;20590;-64
2021/06/24 01:45:28;;;;;;;;;;;20.60;67.00;;;;;;5049229;28;19928;-65
2021/06/24 01:47:54;;;;;;;;;;;20.60;67.50;;;;;;5058895;28;20001;-65
2021/06/24 01:50:19;;;;;;;;;;;20.60;67.10;;;;;;5054713;28;19920;-64
2021/06/24 01:52:45;;;;;;;;;;;20.70;66.90;;;;;;5052945;28;19981;-64
2021/06/24 01:55:11;;;;;;;;;;;20.80;66.80;;;;;;5055007;28;19927;-65
2021/06/24 01:57:36;;;;;;;;;;;20.80;67.00;;;;;;5054567;28;20011;-64
2021/06/24 02:00:08;;;;;;;;;;;20.80;66.60;;;;;;5045341;28;20717;-65
2021/06/24 02:02:34;;;;;;;;;;;20.90;66.90;;;;;;5045926;28;20515;-64
2021/06/24 02:04:59;;;;;;;;;;;20.90;66.90;;;;;;5053356;28;20033;-64
2021/06/24 02:07:25;;;;;;;;;;;20.90;66.50;;;;;;5045588;28;20231;-65
2021/06/24 02:09:50;;;;;;;;;;;20.90;66.20;;;;;;5057695;28;20279;-64
2021/06/24 02:12:16;;;;;;;;;;;20.70;66.70;;;;;;5052554;28;19917;-65
2021/06/24 02:14:41;;;;;;;;;;;20.90;67.10;;;;;;5054435;28;19920;-64
2021/06/24 02:17:07;;;;;;;;;;;20.90;66.30;;;;;;5046239;28;19967;-65
2021/06/24 02:19:32;;;;;;;;;;;20.80;66.10;;;;;;5055866;28;20315;-65
2021/06/24 02:21:58;;;;;;;;;;;20.90;66.70;;;;;;5043657;28;20011;-64
2021/06/24 02:24:23;;;;;;;;;;;21.00;67.00;;;;;;5036574;28;20259;-64
2021/06/24 02:26:49;;;;;;;;;;;21.00;66.60;;;;;;5050199;28;19931;-64
2021/06/24 02:29:14;;;;;;;;;;;20.80;65.90;;;;;;5059514;28;19920;-64
2021/06/24 02:31:40;;;;;;;;;;;20.70;66.50;;;;;;5059380;28;19920;-64
2021/06/24 02:34:05;;;;;;;;;;;20.50;67.30;;;;;;5054123;28;19920;-64
2021/06/24 02:36:31;;;;;;;;;;;20.60;67.00;;;;;;5047066;28;19982;-64
2021/06/24 02:38:56;;;;;;;;;;;20.70;67.20;;;;;;5056734;28;20406;-64
2021/06/24 02:41:22;;;;;;;;;;;20.60;66.80;;;;;;5051794;28;19935;-65
2021/06/24 02:43:47;;;;;;;;;;;20.60;67.10;;;;;;5043783;28;20409;-65
2021/06/24 02:46:14;;;;;;;;;;;20.60;66.70;;;;;;5053759;28;20027;-64
2021/06/24 02:48:39;;;;;;;;;;;20.50;67.00;;;;;;5051623;28;19916;-64
2021/06/24 02:51:05;;;;;;;;;;;20.40;66.90;;;;;;5045660;28;20191;-63
2021/06/24 02:53:30;;;;;;;;;;;20.40;67.60;;;;;;5052436;28;19921;-64
2021/06/24 02:55:56;;;;;;;;;;;20.40;66.80;;;;;;5056993;28;19928;-64
2021/06/24 02:58:21;;;;;;;;;;;20.50;67.50;;;;;;5050410;28;20360;-64
2021/06/24 03:00:47;;;;;;;;;;;20.50;67.10;;;;;;5050379;28;19960;-64
2021/06/24 03:03:12;;;;;;;;;;;20.60;67.30;;;;;;5047643;28;19939;-64
2021/06/24 03:05:38;;;;;;;;;;;20.60;66.30;;;;;;5046812;28;20540;-63
2021/06/24 03:08:03;;;;;;;;;;;20.60;66.80;;;;;;5039473;28;19917;-64
2021/06/24 03:10:29;;;;;;;;;;;20.50;67.30;;;;;;5051212;28;19952;-64
2021/06/24 03:12:54;;;;;;;;;;;20.60;67.30;;;;;;5051906;28;19920;-64
2021/06/24 03:15:19;;;;;;;;;;;20.70;66.90;;;;;;5051382;28;20395;-64
2021/06/24 03:17:47;;;;;;;;;;;20.80;66.40;;;;;;5057668;28;19943;-64
2021/06/24 03:20:12;;;;;;;;;;;20.60;66.70;;;;;;5053954;28;19925;-64
2021/06/24 03:22:38;;;;;;;;;;;20.60;66.90;;;;;;5048761;28;19920;-63
2021/06/24 03:25:04;;;;;;;;;;;20.60;67.00;;;;;;5044910;28;20383;-64
2021/06/24 03:27:29;;;;;;;;;;;20.70;67.10;;;;;;5044436;28;19921;-64
2021/06/24 03:29:55;;;;;;;;;;;20.70;66.20;;;;;;5056244;28;19927;-64
2021/06/24 03:32:20;;;;;;;;;;;20.80;66.90;;;;;;5056995;28;19920;-64
2021/06/24 03:34:46;;;;;;;;;;;20.90;66.90;;;;;;5049580;28;20387;-63
2021/06/24 03:37:11;;;;;;;;;;;20.90;66.40;;;;;;5036383;28;19981;-64
2021/06/24 03:39:37;;;;;;;;;;;20.70;66.60;;;;;;5037063;28;19977;-63
2021/06/24 03:42:03;;;;;;;;;;;20.80;66.80;;;;;;5032870;28;19920;-64
2021/06/24 03:44:28;;;;;;;;;;;20.80;66.60;;;;;;5052799;28;19924;-63
2021/06/24 03:46:54;;;;;;;;;;;20.80;66.70;;;;;;5054688;28;19916;-64
2021/06/24 03:49:19;;;;;;;;;;;20.70;66.30;;;;;;5047614;28;20679;-62
2021/06/24 03:51:45;;;;;;;;;;;20.70;66.50;;;;;;5044362;28;19921;-64
2021/06/24 03:54:10;;;;;;;;;;;20.70;66.40;;;;;;5035380;28;19921;-64
2021/06/24 03:56:36;;;;;;;;;;;20.70;66.60;;;;;;5054197;28;19939;-64
2021/06/24 03:59:02;;;;;;;;;;;20.70;66.70;;;;;;5051301;28;19916;-64
2021/06/24 04:01:27;;;;;;;;;;;20.80;66.10;;;;;;5043123;28;19925;-63
2021/06/24 04:03:52;;;;;;;;;;;20.80;66.10;;;;;;5047723;28;19920;-64
2021/06/24 04:06:18;;;;;;;;;;;20.80;66.20;;;;;;5058457;28;19927;-63
2021/06/24 04:08:43;;;;;;;;;;;20.70;66.40;;;;;;5044661;28;19917;-63
2021/06/24 04:11:09;;;;;;;;;;;20.60;66.40;;;;;;5046718;28;20418;-64
2021/06/24 04:13:34;;;;;;;;;;;20.70;66.70;;;;;;5043882;28;19921;-64
2021/06/24 04:16:00;;;;;;;;;;;20.80;66.80;;;;;;5042502;28;19920;-64
2021/06/24 04:18:26;;;;;;;;;;;20.90;66.20;;;;;;5050238;28;19962;-64
2021/06/24 04:20:51;;;;;;;;;;;20.90;66.10;;;;;;5035933;28;19924;-64
2021/06/24 04:23:16;;;;;;;;;;;20.90;66.10;;;;;;5055968;28;19930;-63
2021/06/24 04:25:42;;;;;;;;;;;20.80;65.50;;;;;;5049718;28;20359;-65
2021/06/24 04:28:08;;;;;;;;;;;20.80;66.40;;;;;;5048805;28;19924;-64
2021/06/24 04:30:33;;;;;;;;;;;20.90;66.80;;;;;;5025536;28;19920;-63
2021/06/24 04:32:59;;;;;;;;;;;21.00;66.90;;;;;;5043205;28;20012;-63
2021/06/24 04:35:25;;;;;;;;;;;21.00;66.90;;;;;;5059074;28;19975;-63
2021/06/24 04:37:51;;;;;;;;;;;21.00;66.90;;;;;;5049022;28;19959;-64
2021/06/24 04:40:16;;;;;;;;;;;21.00;67.00;;;;;;5038734;28;19921;-65
2021/06/24 04:42:42;;;;;;;;;;;21.00;67.00;;;;;;5057557;28;19970;-65
2021/06/24 04:45:08;;;;;;;;;;;21.00;66.90;;;;;;5051212;28;20376;-64
2021/06/24 04:47:33;;;;;;;;;;;21.00;67.00;;;;;;5046497;28;19921;-65
2021/06/24 04:49:59;;;;;;;;;;;21.00;66.90;;;;;;5051434;28;19947;-64
2021/06/24 04:52:24;;;;;;;;;;;21.00;66.70;;;;;;5044867;28;20513;-62
2021/06/24 04:54:50;;;;;;;;;;;21.10;66.70;;;;;;5043413;28;19921;-62
2021/06/24 04:57:15;;;;;;;;;;;21.00;66.70;;;;;;5044206;28;19951;-62
2021/06/24 04:59:41;;;;;;;;;;;21.00;66.60;;;;;;5042168;28;19934;-63
2021/06/24 05:02:06;;;;;;;;;;;21.00;66.60;;;;;;5048159;28;20395;-62
2021/06/24 05:04:32;;;;;;;;;;;21.10;65.90;;;;;;5048961;28;19927;-63
2021/06/24 05:07:02;;;;;;;;;;;21.00;66.20;;;;;;5035289;28;19924;-63
2021/06/24 05:09:30;;;;;;;;;;;21.00;66.30;;;;;;5053558;28;20015;-63
2021/06/24 05:11:55;;;;;;;;;;;21.00;65.70;;;;;;5042456;28;19929;-64
2021/06/24 05:14:21;;;;;;;;;;;21.00;66.00;;;;;;5040009;28;19944;-64
2021/06/24 05:16:47;;;;;;;;;;;21.00;66.30;;;;;;5045887;28;20039;-65
2021/06/24 05:19:12;;;;;;;;;;;21.00;66.50;;;;;;5048788;28;19947;-64
2021/06/24 05:21:38;;;;;;;;;;;21.00;66.40;;;;;;5053364;28;19924;-66
2021/06/24 05:24:04;;;;;;;;;;;21.00;66.20;;;;;;5062977;28;19924;-64
2021/06/24 05:26:29;;;;;;;;;;;21.10;66.30;;;;;;5061568;28;19916;-63
2021/06/24 05:28:54;;;;;;;;;;;21.00;65.90;;;;;;5055053;28;20401;-64
2021/06/24 05:31:20;;;;;;;;;;;21.00;65.60;;;;;;5064876;28;19924;-64
2021/06/24 05:33:45;;;;;;;;;;;21.00;66.00;;;;;;5065482;28;19917;-64
2021/06/24 05:36:11;;;;;;;;;;;21.00;65.70;;;;;;5063576;28;19912;-64
2021/06/24 05:38:36;;;;;;;;;;;20.80;66.10;;;;;;5063181;28;19948;-64
2021/06/24 05:41:02;;;;;;;;;;;20.80;66.30;;;;;;5065941;28;19924;-62
2021/06/24 05:43:27;;;;;;;;;;;20.80;65.80;;;;;;5063790;28;19920;-62
2021/06/24 05:45:53;;;;;;;;;;;20.60;66.20;;;;;;5063631;28;19919;-63
2021/06/24 05:48:18;;;;;;;;;;;20.60;66.70;;;;;;5065841;28;19944;-64
2021/06/24 05:50:44;;;;;;;;;;;20.60;66.20;;;;;;5065852;28;19916;-64
2021/06/24 05:53:09;;;;;;;;;;;20.60;66.60;;;;;;5066019;28;19913;-64
2021/06/24 05:55:47;;;;;;;;;;;20.60;66.40;;;;;;5065605;28;20358;-64
2021/06/24 05:58:13;;;;;;;;;;;20.60;66.70;;;;;;5066012;28;19977;-63
2021/06/24 06:00:39;;;;;;;;;;;20.70;66.70;;;;;;5064854;28;19920;-65
2021/06/24 06:03:04;;;;;;;;;;;20.70;66.60;;;;;;5064118;28;19917;-65
2021/06/24 06:05:30;;;;;;;;;;;20.70;66.40;;;;;;5047390;28;19919;-65
2021/06/24 06:07:55;;;;;;;;;;;20.70;66.70;;;;;;5065666;28;19916;-65
2021/06/24 06:10:21;;;;;;;;;;;20.60;66.10;;;;;;5066126;28;19942;-65
2021/06/24 06:12:46;;;;;;;;;;;20.70;66.90;;;;;;5066286;28;19921;-65
2021/06/24 06:15:12;;;;;;;;;;;20.80;67.00;;;;;;5052576;28;19913;-65
2021/06/24 06:17:38;;;;;;;;;;;20.80;66.40;;;;;;5059150;28;20058;-65
2021/06/24 06:20:03;;;;;;;;;;;20.80;66.70;;;;;;5062682;28;20344;-65
2021/06/24 06:22:29;;;;;;;;;;;20.90;67.60;;;;;;5064657;28;19999;-64
2021/06/24 06:24:54;;;;;;;;;;;20.90;67.40;;;;;;5071816;22;19924;-66
2021/06/24 06:27:20;;;;;;;;;;;20.90;67.70;;;;;;5061133;28;19913;-67
2021/06/24 06:29:45;;;;;;;;;;;20.80;66.80;;;;;;5072803;28;20391;-65
2021/06/24 06:32:11;;;;;;;;;;;20.90;66.90;;;;;;5073591;28;20355;-66
2021/06/24 06:34:36;;;;;;;;;;;20.90;67.30;;;;;;5051836;28;19944;-64
2021/06/24 06:37:02;;;;;;;;;;;20.90;67.50;;;;;;5056960;28;19912;-64
2021/06/24 06:39:27;;;;;;;;;;;20.90;67.50;;;;;;5053297;28;19920;-65
2021/06/24 06:41:53;;;;;;;;;;;20.90;67.60;;;;;;5048815;28;20523;-65
2021/06/24 06:44:18;;;;;;;;;;;20.90;67.50;;;;;;5055686;28;19920;-67
2021/06/24 06:46:43;;;;;;;;;;;20.90;67.40;;;;;;5053108;28;19913;-66
2021/06/24 06:49:09;;;;;;;;;;;20.90;67.40;;;;;;5058951;28;19923;-65
2021/06/24 06:51:34;;;;;;;;;;;20.90;67.30;;;;;;5046783;28;20272;-66
2021/06/24 06:54:00;;;;;;;;;;;20.70;66.20;;;;;;5046433;28;19921;-67
2021/06/24 06:56:25;;;;;;;;;;;20.50;67.10;;;;;;5064775;28;19931;-66
2021/06/24 06:58:52;;;;;;;;;;;20.60;67.50;;;;;;5050544;28;19919;-66
2021/06/24 07:01:18;;;;;;;;;;;20.50;66.70;;;;;;5042588;28;20042;-66
2021/06/24 07:03:43;;;;;;;;;;;20.60;67.00;;;;;;5057995;28;19924;-65
2021/06/24 07:06:08;;;;;;;;;;;20.70;66.90;;;;;;5061486;28;19913;-67
2021/06/24 07:08:34;;;;;;;;;;;20.70;66.30;;;;;;5049752;28;19916;-66
2021/06/24 07:10:59;;;;;;;;;;;20.60;67.00;;;;;;5047625;28;20427;-67
2021/06/24 07:13:25;;;;;;;;;;;20.60;67.00;;;;;;5045248;28;19990;-65
2021/06/24 07:15:50;;;;;;;;;;;20.70;66.80;;;;;;5043129;28;19917;-66
2021/06/24 07:18:16;;;;;;;;;;;20.70;66.70;;;;;;5051569;28;19916;-65
2021/06/24 07:20:42;;;;;;;;;;;20.70;66.30;;;;;;5051729;28;19937;-66
2021/06/24 07:23:08;;;;;;;;;;;20.80;66.50;;;;;;5051574;28;19952;-66
2021/06/24 07:25:33;;;;;;;;;;;20.80;66.40;;;;;;5063846;28;19944;-66
2021/06/24 07:27:59;;;;;;;;;;;20.80;66.40;;;;;;5053690;28;20427;-66
2021/06/24 07:30:24;;;;;;;;;;;20.70;66.30;;;;;;5049776;28;19920;-67
2021/06/24 07:32:50;;;;;;;;;;;20.60;66.80;;;;;;5051793;28;20403;-66
2021/06/24 07:35:15;;;;;;;;;;;20.50;66.80;;;;;;5042499;28;19920;-67
2021/06/24 07:37:42;;;;;;;;;;;20.60;67.20;;;;;;5058287;28;19956;-63
2021/06/24 07:40:08;;;;;;;;;;;20.70;66.80;;;;;;5052293;28;19924;-66
2021/06/24 07:42:34;;;;;;;;;;;20.70;66.20;;;;;;5051147;28;19913;-65
2021/06/24 07:44:59;;;;;;;;;;;20.60;66.70;;;;;;5032347;28;20406;-64
2021/06/24 07:47:25;;;;;;;;;;;20.70;66.80;;;;;;5050611;28;19923;-66
2021/06/24 07:49:50;;;;;;;;;;;20.70;66.70;;;;;;5050158;28;19948;-64
2021/06/24 07:52:16;;;;;;;;;;;20.70;66.70;;;;;;5050798;28;19963;-65
2021/06/24 07:54:41;;;;;;;;;;;20.80;67.60;;;;;;5046733;28;20466;-65
2021/06/24 07:57:07;;;;;;;;;;;20.80;67.20;;;;;;5049425;28;19922;-65
2021/06/24 07:59:34;;;;;;;;;;;20.80;67.80;;;;;;5061958;28;20031;-65
2021/06/24 08:01:59;;;;;;;;;;;20.80;66.90;;;;;;5056967;28;20062;-64
2021/06/24 08:04:25;;;;;;;;;;;20.80;66.80;;;;;;5053331;28;20514;-65
2021/06/24 08:06:52;;;;;;;;;;;20.60;66.80;;;;;;5057724;28;20026;-65
2021/06/24 08:09:17;;;;;;;;;;;20.60;67.30;;;;;;5062856;28;19920;-65
2021/06/24 08:11:43;;;;;;;;;;;20.50;67.60;;;;;;5052210;28;19917;-65
2021/06/24 08:14:08;;;;;;;;;;;20.60;67.40;;;;;;5051495;28;20365;-66
2021/06/24 08:16:35;;;;;;;;;;;20.60;67.20;;;;;;5049316;28;19913;-65
2021/06/24 08:19:01;;;;;;;;;;;20.60;67.30;;;;;;5055874;28;20349;-65
2021/06/24 08:21:26;;;;;;;;;;;20.60;67.10;;;;;;5052400;28;19921;-65
2021/06/24 08:23:52;;;;;;;;;;;20.70;67.00;;;;;;5052511;28;19928;-64
2021/06/24 08:26:18;;;;;;;;;;;20.60;66.40;;;;;;5054545;28;19964;-64
2021/06/24 08:28:43;;;;;;;;;;;20.60;67.50;;;;;;5054496;28;19923;-64
2021/06/24 08:31:09;;;;;;;;;;;20.60;68.10;;;;;;5050164;28;19948;-65
2021/06/24 08:33:34;;;;;;;;;;;20.60;68.00;;;;;;5045927;28;19928;-66
2021/06/24 08:36:00;;;;;;;;;;;20.70;68.50;;;;;;5047503;28;20416;-65
2021/06/24 08:38:25;;;;;;;;;;;20.80;68.60;;;;;;5050427;28;19917;-66
2021/06/24 08:40:51;;;;;;;;;;;20.80;68.10;;;;;;5049273;28;19917;-65
2021/06/24 08:43:16;;;;;;;;;;;20.80;68.90;;;;;;5048634;28;20039;-66
2021/06/24 08:45:42;;;;;;;;;;;20.80;68.10;;;;;;5054232;28;19956;-66
2021/06/24 08:48:15;;;;;;;;;;;20.80;68.00;;;;;;5055669;28;19978;-65
2021/06/24 08:50:44;;;;;;;;;;;20.70;67.80;;;;;;5056856;28;19916;-66
2021/06/24 08:53:09;;;;;;;;;;;20.60;68.40;;;;;;5047819;28;19912;-67
2021/06/24 08:55:39;;;;;;;;;;;20.60;68.00;;;;;;5041813;28;19920;-66
2021/06/24 08:58:05;;;;;;;;;;;20.60;68.20;;;;;;5051744;28;19913;-66
2021/06/24 09:00:30;;;;;;;;;;;20.60;68.40;;;;;;5067685;28;19924;-66
2021/06/24 09:02:58;;;;;;;;;;;20.60;68.20;;;;;;5048536;28;19923;-66
2021/06/24 09:05:24;;;;;;;;;;;20.60;68.20;;;;;;5059877;28;20019;-66
2021/06/24 09:07:50;;;;;;;;;;;20.60;68.40;;;;;;5060276;28;19913;-66
2021/06/24 09:10:16;;;;;;;;;;;20.60;68.50;;;;;;5063282;28;19932;-65
2021/06/24 09:12:51;;;;;;;;;;;20.60;68.40;;;;;;5055295;28;19921;-66
2021/06/24 09:15:16;;;;;;;;;;;20.40;68.50;;;;;;5051134;28;19916;-66
2021/06/24 09:17:42;;;;;;;;;;;20.40;69.00;;;;;;5054965;28;19919;-66
2021/06/24 09:20:23;;;;;;;;;;;20.30;69.50;;;;;;5050001;28;19921;-64
2021/06/24 09:23:07;;;;;;;;;;;20.30;69.20;;;;;;5058447;28;19951;-66
2021/06/24 09:25:33;;;;;;;;;;;20.40;69.50;;;;;;5045218;28;19921;-66
2021/06/24 09:27:58;;;;;;;;;;;20.50;69.20;;;;;;5061835;28;19919;-66
2021/06/24 09:30:30;;;;;;;;;;;20.40;69.10;;;;;;5057920;28;19956;-66
2021/06/24 09:32:56;;;;;;;;;;;20.40;69.30;;;;;;5049995;28;20396;-66
2021/06/24 09:35:22;;;;;;;;;;;20.50;69.20;;;;;;5057059;28;19913;-66
2021/06/24 09:38:07;;;;;;;;;;;20.50;69.20;;;;;;5049718;28;20001;-65
2021/06/24 09:40:46;;;;;;;;;;;20.50;69.00;;;;;;5064156;28;20298;-65
2021/06/24 09:43:26;;;;;;;;;;;20.50;69.10;;;;;;5051690;28;19935;-65
2021/06/24 09:46:15;;;;;;;;;;;20.60;69.50;;;;;;5062222;28;19974;-65
2021/06/24 09:48:58;;;;;;;;;;;20.50;68.80;;;;;;5049824;28;19912;-66
2021/06/24 09:51:30;;;;;;;;;;;20.50;69.00;;;;;;5063495;28;19972;-65
2021/06/24 09:53:59;;;;;;;;;;;20.50;69.20;;;;;;5060116;28;19913;-64
2021/06/24 09:56:30;;;;;;;;;;;20.60;69.30;;;;;;5048105;28;20016;-66
2021/06/24 09:58:56;;;;;;;;;;;20.60;69.40;;;;;;5056642;28;19913;-64
2021/06/24 10:01:30;;;;;;;;;;;20.60;69.00;;;;;;5054358;28;21538;-66
2021/06/24 10:03:56;;;;;;;;;;;20.60;68.80;;;;;;5053152;28;19921;-65
2021/06/24 10:06:22;;;;;;;;;;;20.60;69.00;;;;;;5067051;28;19935;-65
2021/06/24 10:08:47;;;;;;;;;;;20.50;69.60;;;;;;5059294;28;20378;-65
2021/06/24 10:11:13;;;;;;;;;;;20.50;69.60;;;;;;5052268;28;19971;-66
2021/06/24 10:13:38;;;;;;;;;;;20.50;69.50;;;;;;5055099;28;19913;-64
2021/06/24 10:16:04;;;;;;;;;;;20.60;69.50;;;;;;5057663;28;19921;-67
2021/06/24 10:18:29;;;;;;;;;;;20.60;69.50;;;;;;5081110;28;20393;-68
2021/06/24 10:20:54;;;;;;;;;;;20.60;69.80;;;;;;5050472;28;19952;-69
2021/06/24 10:23:20;;;;;;;;;;;20.70;69.50;;;;;;5055012;28;19917;-66
2021/06/24 10:25:46;;;;;;;;;;;20.60;69.30;;;;;;5045301;28;19917;-67
2021/06/24 10:28:12;;;;;;;;;;;20.60;69.30;;;;;;5047007;28;19920;-68
2021/06/24 10:30:38;;;;;;;;;;;20.40;69.60;;;;;;5063218;28;20457;-67
2021/06/24 10:33:07;;;;;;;;;;;20.40;69.70;;;;;;5057885;28;20011;-67
2021/06/24 10:35:33;;;;;;;;;;;20.40;69.60;;;;;;5047903;28;19921;-68
2021/06/24 10:37:59;;;;;;;;;;;20.40;69.50;;;;;;5081845;28;19962;-69
2021/06/24 10:40:24;;;;;;;;;;;20.50;69.60;;;;;;5041920;28;20380;-66
2021/06/24 10:42:50;;;;;;;;;;;20.50;69.30;;;;;;5055849;28;19926;-68
2021/06/24 10:45:16;;;;;;;;;;;20.50;69.40;;;;;;5066725;28;19913;-66
2021/06/24 10:47:41;;;;;;;;;;;20.50;69.50;;;;;;5054155;28;20435;-66
2021/06/24 10:50:25;;;;;;;;;;;20.50;69.20;;;;;;5052532;28;19966;-66
2021/06/24 10:52:51;;;;;;;;;;;20.50;69.30;;;;;;5044082;28;19982;-68
2021/06/24 10:55:35;;;;;;;;;;;20.60;69.30;;;;;;5054575;28;20375;-67
2021/06/24 10:58:01;;;;;;;;;;;20.50;69.50;;;;;;5047944;28;19968;-68
2021/06/24 11:00:43;;;;;;;;;;;20.60;69.40;;;;;;5052752;28;20305;-66
2021/06/24 11:03:09;;;;;;;;;;;20.60;69.30;;;;;;5057912;28;19921;-67
2021/06/24 11:05:35;;;;;;;;;;;20.60;69.10;;;;;;5056812;28;20084;-66
2021/06/24 11:08:07;;;;;;;;;;;20.50;70.70;;;;;;5058133;28;19940;-67
2021/06/24 11:10:32;;;;;;;;;;;20.50;70.60;;;;;;5052721;28;20306;-67
2021/06/24 11:12:58;;;;;;;;;;;20.60;71.80;;;;;;5054088;28;19913;-65
2021/06/24 11:15:43;;;;;;;;;;;20.60;71.60;;;;;;5060828;28;19971;-66
2021/06/24 11:18:08;;;;;;;;;;;20.60;70.80;;;;;;5052754;28;19924;-66
2021/06/24 11:20:52;;;;;;;;;;;20.60;71.30;;;;;;5059726;28;19966;-65
2021/06/24 11:23:31;;;;;;;;;;;20.60;71.10;;;;;;5056306;28;21636;-66
2021/06/24 11:26:15;;;;;;;;;;;20.50;70.80;;;;;;5061004;28;19920;-64
2021/06/24 11:32:01;;;;;;;;;;;20.50;70.60;;;;;;5024874;28;19951;-66
2021/06/24 11:34:38;;;;;;;;;;;20.50;71.00;;;;;;5042905;28;20004;-66
2021/06/24 11:37:04;;;;;;;;;;;20.50;70.70;;;;;;5049942;28;19913;-67
2021/06/24 11:39:33;;;;;;;;;;;20.60;70.80;;;;;;5058215;28;19913;-66
2021/06/24 11:41:59;;;;;;;;;;;20.60;70.90;;;;;;5058065;28;20050;-63
2021/06/24 11:44:26;;;;;;;;;;;20.60;70.60;;;;;;5046488;28;19913;-65
2021/06/24 11:47:11;;;;;;;;;;;20.50;70.90;;;;;;5047029;28;20525;-66
2021/06/24 12:03:31;;;;;;;;;;;20.40;70.70;;;;;;5055411;28;19919;-65
2021/06/24 12:05:58;;;;;;;;;;;20.50;70.40;;;;;;5039022;28;19925;-66
2021/06/24 12:08:24;;;;;;;;;;;20.40;70.80;;;;;;5050371;28;19920;-67
2021/06/24 12:11:03;;;;;;;;;;;20.40;70.60;;;;;;5047807;28;20345;-66
2021/06/24 12:13:31;;;;;;;;;;;20.40;70.60;;;;;;5045152;28;19917;-66
2021/06/24 12:15:59;;;;;;;;;;;20.40;70.10;;;;;;5050079;28;19921;-65
2021/06/24 12:18:31;;;;;;;;;;;20.40;70.40;;;;;;5055361;28;19917;-67
2021/06/24 12:21:04;;;;;;;;;;;20.40;70.20;;;;;;5051710;28;19947;-66
2021/06/24 12:23:29;;;;;;;;;;;20.40;70.50;;;;;;5047679;28;20408;-66
2021/06/24 12:25:58;;;;;;;;;;;20.40;70.50;;;;;;5054772;22;19929;-60
2021/06/24 12:28:24;;;;;;;;;;;20.50;70.20;;;;;;5038490;28;20448;-60
2021/06/24 12:30:51;;;;;;;;;;;20.50;70.10;;;;;;5037924;28;19949;-57
2021/06/24 12:33:17;;;;;;;;;;;20.50;70.80;;;;;;5030458;28;19923;-60
2021/06/24 12:35:43;;;;;;;;;;;20.50;69.80;;;;;;5030493;28;19917;-61
2021/06/24 12:38:09;;;;;;;;;;;20.50;70.20;;;;;;5018767;28;19964;-60
2021/06/24 12:40:35;;;;;;;;;;;20.60;70.00;;;;;;5023110;28;19922;-62
2021/06/24 12:43:01;;;;;;;;;;;20.50;70.10;;;;;;5026559;28;20071;-61
2021/06/24 12:45:28;;;;;;;;;;;20.50;70.00;;;;;;5030602;28;19917;-62
2021/06/24 12:47:53;;;;;;;;;;;20.40;70.90;;;;;;5025019;28;19917;-61
2021/06/24 12:50:20;;;;;;;;;;;20.40;70.50;;;;;;5033035;28;20348;-63
2021/06/24 12:52:45;;;;;;;;;;;20.50;71.00;;;;;;5033547;28;19944;-61
2021/06/24 12:55:31;;;;;;;;;;;20.50;70.30;;;;;;5032786;28;20376;-59
2021/06/24 12:57:59;;;;;;;;;;;20.50;70.60;;;;;;5033317;28;19955;-61
2021/06/24 13:00:24;;;;;;;;;;;20.50;71.40;;;;;;5024353;28;19928;-60
2021/06/24 13:02:51;;;;;;;;;;;20.50;70.80;;;;;;5031491;28;19917;-61
2021/06/24 13:05:26;;;;;;;;;;;20.50;71.20;;;;;;5026196;28;19917;-58
2021/06/24 13:07:55;;;;;;;;;;;20.50;70.90;;;;;;5023238;28;20584;-59
2021/06/24 13:10:21;;;;;;;;;;;20.50;71.40;;;;;;5036442;28;19974;-58
2021/06/24 13:12:47;;;;;;;;;;;20.50;71.10;;;;;;5030712;28;19917;-59
2021/06/24 13:15:28;;;;;;;;;;;20.50;71.60;;;;;;5033662;28;19916;-60
2021/06/24 13:17:56;;;;;;;;;;;20.50;71.00;;;;;;5025694;28;20542;-61
2021/06/24 13:20:22;;;;;;;;;;;20.50;72.00;;;;;;5026171;28;20414;-61
2021/06/24 13:22:47;;;;;;;;;;;20.50;71.40;;;;;;5033357;28;19935;-58
2021/06/24 13:25:19;;;;;;;;;;;20.50;71.60;;;;;;5039941;28;20275;-60
2021/06/24 13:27:45;;;;;;;;;;;20.50;71.50;;;;;;5026238;28;20366;-58
2021/06/24 13:30:14;;;;;;;;;;;20.50;71.60;;;;;;5024647;28;19921;-61
2021/06/24 13:32:49;;;;;;;;;;;20.50;71.30;;;;;;5019801;28;20015;-60
2021/06/24 13:35:22;;;;;;;;;;;20.50;71.10;;;;;;5022228;28;20456;-63
2021/06/24 13:37:48;;;;;;;;;;;20.40;71.40;;;;;;5023676;28;20393;-62
2021/06/24 13:40:17;;;;;;;;;;;20.40;71.40;;;;;;5037907;28;19991;-63
2021/06/24 13:42:48;;;;;;;;;;;20.40;71.20;;;;;;5028367;28;20287;-64
2021/06/24 13:45:14;;;;;;;;;;;20.50;71.40;;;;;;5029352;28;19998;-63
2021/06/24 13:47:39;;;;;;;;;;;20.50;71.50;;;;;;5037588;28;19946;-61
2021/06/24 13:50:05;;;;;;;;;;;20.50;71.20;;;;;;5034736;28;20378;-63
2021/06/24 13:52:31;;;;;;;;;;;20.60;71.10;;;;;;5018586;28;19917;-60
2021/06/24 13:54:57;;;;;;;;;;;20.60;71.10;;;;;;5031694;28;20028;-61
2021/06/24 13:57:22;;;;;;;;;;;20.60;71.00;;;;;;5033290;28;19912;-59
2021/06/24 13:59:48;;;;;;;;;;;20.60;70.90;;;;;;5023981;28;19961;-62
2021/06/24 14:02:13;;;;;;;;;;;20.60;70.90;;;;;;5027157;28;19956;-60
2021/06/24 14:04:39;;;;;;;;;;;20.60;70.90;;;;;;5014086;28;19999;-61
2021/06/24 14:07:04;;;;;;;;;;;20.50;71.00;;;;;;5040084;28;19943;-62
2021/06/24 14:09:30;;;;;;;;;;;20.50;71.30;;;;;;5026989;28;19928;-62
2021/06/24 14:11:55;;;;;;;;;;;20.40;71.10;;;;;;5027648;28;19921;-62
2021/06/24 14:14:21;;;;;;;;;;;20.40;71.60;;;;;;5026986;28;19924;-62
2021/06/24 14:16:47;;;;;;;;;;;20.40;71.60;;;;;;5020233;28;19913;-62
2021/06/24 14:19:12;;;;;;;;;;;20.40;71.40;;;;;;5022138;28;19940;-62
2021/06/24 14:21:38;;;;;;;;;;;20.50;70.90;;;;;;5026913;28;19963;-62
2021/06/24 14:24:04;;;;;;;;;;;20.50;70.40;;;;;;5005719;28;19929;-62
2021/06/24 14:26:30;;;;;;;;;;;20.60;70.70;;;;;;5017714;28;19998;-61
2021/06/24 14:28:56;;;;;;;;;;;20.50;71.20;;;;;;5027864;28;19936;-63
2021/06/24 14:31:21;;;;;;;;;;;20.50;71.20;;;;;;5034773;28;20278;-62